ADDS METAR Data INFO
IDs: Format: Raw Decoded Include TAF

Data at: 0940 UTC 25 Jun 2018

KTSP 250935Z AUTO 28008KT 10SM CLR 19/09 A3005 RMK AO2
KTSP 250915Z AUTO 27007KT 10SM CLR A3004 RMK AO2
KTSP 250855Z AUTO 27007KT 10SM CLR A3004 RMK AO2
KTSP 250835Z AUTO 28006KT 10SM CLR A3004 RMK AO2
KTSP 250815Z AUTO 27007KT 10SM CLR A3004 RMK AO2
KTSP 250755Z AUTO 27006KT 10SM CLR A3005 RMK AO2
KTSP 250735Z AUTO 26006KT 10SM CLR A3005 RMK AO2
KTSP 250715Z AUTO 27007KT 10SM CLR A3005 RMK AO2
KTSP 250655Z AUTO 28007KT 10SM CLR A3004 RMK AO2
KTSP 250635Z AUTO 27005KT 10SM CLR A3005 RMK AO2
KTSP 250615Z AUTO 27006KT 10SM CLR A3005 RMK AO2
KTSP 250555Z AUTO 27007KT 10SM CLR A3005 RMK AO2
KTSP 250535Z AUTO 27008KT 10SM CLR 22/07 A3005 RMK AO2
KTSP 250515Z AUTO 27009KT 10SM CLR A3005 RMK AO2
KTSP 250455Z AUTO 27007KT 10SM CLR A3004 RMK AO2
KTSP 250435Z AUTO 26008KT 10SM CLR 23/07 A3005 RMK AO2
KTSP 250415Z AUTO 27007KT 10SM CLR A3003 RMK AO2
KTSP 250355Z AUTO 27006KT 10SM CLR A3003 RMK AO2
KTSP 250335Z AUTO 29007KT 10SM CLR 25/07 A3003 RMK AO2
KTSP 250315Z AUTO 29008KT 10SM CLR A3001 RMK AO2
KTSP 250255Z AUTO 30010KT 10SM CLR 27/07 A3002 RMK AO2
KTSP 250235Z AUTO 30011KT 10SM CLR 28/07 A3001 RMK AO2
KTSP 250215Z AUTO 30013G20KT 10SM CLR 28/07 A3001 RMK AO2
KTSP 250155Z AUTO 31016G20KT 10SM CLR 29/07 A3000 RMK AO2
KTSP 250135Z AUTO 31015G20KT 10SM CLR 29/07 A3000 RMK AO2
KTSP 250115Z AUTO 31015G19KT 10SM CLR 30/07 A2999 RMK AO2
KTSP 250055Z AUTO 32015G20KT 10SM CLR 30/07 A2999 RMK AO2
KTSP 250035Z AUTO 33014G21KT 10SM CLR 30/07 A2999 RMK AO2
KTSP 250015Z AUTO 31014G20KT 10SM CLR 31/07 A3000 RMK AO2
KTSP 242355Z AUTO 31010G17KT 10SM CLR 31/07 A3000 RMK AO2
KTSP 242335Z AUTO 31013G20KT 10SM CLR 32/07 A3000 RMK AO2
KTSP 242315Z AUTO 30014G17KT 10SM CLR 32/07 A3000 RMK AO2
KTSP 242255Z AUTO 30014G17KT 10SM CLR 33/06 A3000 RMK AO2
KTSP 242235Z AUTO 31014KT 10SM CLR 33/05 A3000 RMK AO2
KTSP 242215Z AUTO 31011G20KT 10SM CLR 33/05 A3000 RMK AO2
KTSP 242155Z AUTO 30011KT 9SM CLR A2999 RMK AO2
KTSP 242135Z AUTO 18005KT 10SM CLR A2999 RMK AO2
KTSP 242115Z AUTO 14009G17KT 110V170 9SM CLR 34/M02 A3000 RMK AO2
KTSP 242055Z AUTO 10010G15KT 10SM CLR A3000 RMK AO2
KTSP 242035Z AUTO 11012G17KT 10SM CLR 34/M02 A3001 RMK AO2
KTSP 242015Z AUTO 12012G22KT 10SM CLR 34/M03 A3001 RMK AO2
KTSP 241955Z AUTO 11013G22KT 10SM CLR 33/M03 A3001 RMK AO2
KTSP 241935Z AUTO 12016G22KT 10SM CLR 33/M02 A3001 RMK AO2
KTSP 241915Z AUTO 12014G21KT 10SM CLR 33/M01 A3001 RMK AO2
KTSP 241855Z AUTO 12018G25KT 10SM CLR 33/M01 A3001 RMK AO2
KTSP 241835Z AUTO 12017G23KT 10SM CLR 33/M01 A3001 RMK AO2
KTSP 241815Z AUTO 13018G23KT 7SM CLR 33/00 A3001 RMK AO2
KTSP 241755Z AUTO 02004KT 10SM CLR A3000 RMK AO2
KTSP 241735Z AUTO 29003KT 10SM CLR A3000 RMK AO2
KTSP 241715Z AUTO 00000KT 10SM CLR A3000 RMK AO2
KTSP 241655Z AUTO 00000KT 10SM CLR A3000 RMK AO2
KTSP 241635Z AUTO 32003KT 10SM CLR A2999 RMK AO2
KTSP 241615Z AUTO 31005KT 10SM CLR A2999 RMK AO2
KTSP 241555Z AUTO 31005KT 10SM CLR A2999 RMK AO2
KTSP 241535Z AUTO 31005KT 10SM CLR A2999 RMK AO2
KTSP 241515Z AUTO 22003KT 10SM CLR A2998 RMK AO2
KTSP 241455Z AUTO 00000KT 10SM CLR A2998 RMK AO2
KTSP 241435Z AUTO 00000KT 9SM CLR A2998 RMK AO2
KTSP 241415Z AUTO 13003KT 9SM CLR A2998 RMK AO2
KTSP 241355Z AUTO 12003KT 10SM CLR A2997 RMK AO2
KTSP 241335Z AUTO 00000KT 10SM CLR A2997 RMK AO2
KTSP 241315Z AUTO 35003KT 10SM CLR A2996 RMK AO2
KTSP 241255Z AUTO 35003KT 10SM CLR A2996 RMK AO2
KTSP 241235Z AUTO 34003KT 10SM CLR A2996 RMK AO2
KTSP 241215Z AUTO 36004KT 10SM CLR A2995 RMK AO2
KTSP 241155Z AUTO 36004KT 10SM CLR A2995 RMK AO2
KTSP 241135Z AUTO 35004KT 10SM CLR A2995 RMK AO2
KTSP 241115Z AUTO 33005KT 10SM CLR A2995 RMK AO2
KTSP 241055Z AUTO 31005KT 10SM CLR A2994 RMK AO2
KTSP 241035Z AUTO 27004KT 10SM CLR A2995 RMK AO2
KTSP 241015Z AUTO 29003KT 10SM CLR A2995 RMK AO2
KTSP 240955Z AUTO 00000KT 10SM CLR A2995 RMK AO2
KTSP 240935Z AUTO 27006KT 9SM CLR A2994 RMK AO2
KTSP 240915Z AUTO 27006KT 10SM CLR A2994 RMK AO2
KTSP 240855Z AUTO 27007KT 10SM CLR A2994 RMK AO2
KTSP 240835Z AUTO 27006KT 10SM CLR A2994 RMK AO2
KTSP 240815Z AUTO 25005KT 10SM CLR A2995 RMK AO2
KTSP 240755Z AUTO 27007KT 10SM CLR A2995 RMK AO2
KTSP 240735Z AUTO 27008KT 8SM CLR 17/02 A2995 RMK AO2
KTSP 240715Z AUTO 27006KT 10SM CLR A2995 RMK AO2
KTSP 240655Z AUTO 27007KT 10SM CLR 18/02 A2996 RMK AO2
KTSP 240635Z AUTO 28006KT 10SM CLR 19/01 A2996 RMK AO2
KTSP 240615Z AUTO 27007KT 10SM CLR A2995 RMK AO2
KTSP 240555Z AUTO 27007KT 10SM CLR A2995 RMK AO2
KTSP 240535Z AUTO 31005KT 10SM CLR A2996 RMK AO2
KTSP 240515Z AUTO 29008KT 10SM CLR 20/00 A2996 RMK AO2
KTSP 240455Z AUTO 26009KT 10SM CLR 21/00 A2996 RMK AO2
KTSP 240435Z AUTO 27007KT 10SM CLR 22/00 A2996 RMK AO2
KTSP 240415Z AUTO 29007KT 10SM CLR A2994 RMK AO2
KTSP 240355Z AUTO 27010KT 10SM CLR 23/00 A2995 RMK AO2
KTSP 240335Z AUTO 26011KT 10SM CLR 23/00 A2994 RMK AO2
KTSP 240315Z AUTO 27011G15KT 10SM CLR 24/00 A2994 RMK AO2
KTSP 240255Z AUTO 27011KT 10SM CLR 25/02 A2994 RMK AO2
KTSP 240235Z AUTO 28011G17KT 10SM CLR 26/03 A2994 RMK AO2
KTSP 240215Z AUTO 27014G17KT 10SM CLR 27/03 A2993 RMK AO2
KTSP 240155Z AUTO 29012KT 10SM CLR 28/04 A2993 RMK AO2
KTSP 240135Z AUTO 31017G22KT 10SM CLR 28/04 A2993 RMK AO2
KTSP 240115Z AUTO 31015KT 10SM CLR 28/04 A2993 RMK AO2
KTSP 240055Z AUTO 31016G20KT 10SM CLR 29/04 A2993 RMK AO2
KTSP 240035Z AUTO 31016G23KT 10SM CLR 29/03 A2993 RMK AO2
KTSP 240015Z AUTO 32017G22KT 10SM CLR 29/03 A2993 RMK AO2
KTSP 232355Z AUTO 31015G20KT 10SM CLR 29/03 A2993 RMK AO2
KTSP 232335Z AUTO 32015G21KT 10SM CLR 29/03 A2993 RMK AO2
KTSP 232315Z AUTO 32016G21KT 10SM CLR 30/03 A2994 RMK AO2
KTSP 232255Z AUTO 32015G21KT 10SM CLR 30/03 A2994 RMK AO2
KTSP 232235Z AUTO 31017G23KT 10SM CLR 30/04 A2994 RMK AO2
KTSP 232215Z AUTO 31014G23KT 10SM CLR 30/04 A2995 RMK AO2
KTSP 232155Z AUTO 31016G22KT 10SM CLR 30/04 A2995 RMK AO2